Погода Якушовицена неделю

Свентокшиское воеводство, Польша

25 - 31 июля
  • 25июля
    Сегодня
    +11°
    +22°
    Практически безоблачно
    ВремяПогодаТемператураВлажностьДавлениеВетер, м/сВероятность осадков
    02:00Практически безоблачно+15°C92 %737 мм3.7 м/с45 %
    05:00Пасмурно, дождь+14°C95 %737 мм3.6 м/с46 %
    08:00Практически безоблачно+16°C85 %737 мм5.8 м/с45 %
    11:00Практически безоблачно+19°C65 %737 мм5.6 м/с25 %
    14:00Практически безоблачно+21°C47 %737 мм5.8 м/с18 %
    17:00Ясно и безоблачно+22°C42 %736 мм6.1 м/с11 %
    20:00Ясно и безоблачно+19°C51 %736 мм3.2 м/с2 %
    23:00Ясно и безоблачно+16°C60 %737 мм3.9 м/с2 %
  • 26июля
    Пятница
    +13°
    +24°
    Небольшая облачность
    ВремяПогодаТемператураВлажностьДавлениеВетер, м/сВероятность осадков
    02:00Ясно и безоблачно+13°C69 %737 мм2.9 м/с2 %
    05:00Ясно и безоблачно+11°C76 %737 мм2.5 м/с2 %
    08:00Небольшая облачность+16°C66 %738 мм2.4 м/с2 %
    11:00Облачно с прояснениями+21°C51 %738 мм3.1 м/с10 %
    14:00Небольшая облачность+24°C41 %738 мм1.6 м/с14 %
    17:00Ясно и безоблачно+24°C39 %738 мм2.6 м/с8 %
    20:00Небольшая облачность+20°C59 %738 мм2.2 м/с2 %
    23:00Практически безоблачно+16°C66 %739 мм1.7 м/с2 %
  • 27июля
    Суббота
    +17°
    +28°
    Облачно с прояснениями
    ВремяПогодаТемператураВлажностьДавлениеВетер, м/сВероятность осадков
    02:00Ясно и безоблачно+14°C83 %739 мм2.1 м/с2 %
    05:00Ясно и безоблачно+13°C86 %739 мм1.8 м/с2 %
    08:00Ясно и безоблачно+19°C63 %740 мм1.7 м/с2 %
    11:00Облачно с прояснениями+24°C42 %740 мм3.3 м/с2 %
    14:00Облачно с прояснениями+26°C38 %740 мм2.6 м/с2 %
    17:00Практически безоблачно+27°C38 %740 мм3.6 м/с2 %
    20:00Облачно с прояснениями+24°C49 %740 мм3.7 м/с2 %
    23:00Небольшая облачность+21°C47 %740 мм3.4 м/с2 %
  • 28июля
    Воскресенье
    +13°
    +32°
    Ясно и безоблачно
    ВремяПогодаТемператураВлажностьДавлениеВетер, м/сВероятность осадков
    02:00Практически безоблачно+18°C63 %739 мм2.9 м/с2 %
    05:00Облачно с прояснениями+18°C57 %739 мм3.0 м/с6 %
    08:00Ясно и безоблачно+23°C57 %740 мм2.6 м/с4 %
    11:00Практически безоблачно+30°C36 %740 мм5.7 м/с10 %
    14:00Ясно и безоблачно+31°C34 %739 мм5.9 м/с34 %
    17:00Небольшая облачность, возможен дождь с грозой+27°C41 %738 мм5.9 м/с42 %
    20:00Небольшая облачность, возможен дождь с грозой+23°C91 %740 мм6.5 м/с28 %
    23:00Пасмурно, небольшой дождь+17°C76 %743 мм4.3 м/с19 %
  • 29июля
    Понедельник
    +11°
    +23°
    Ясно и безоблачно
    ВремяПогодаТемператураВлажностьДавлениеВетер, м/сВероятность осадков
    02:00Ясно и безоблачно+15°C78 %744 мм3.3 м/с29 %
    05:00Ясно и безоблачно+14°C89 %744 мм3.0 м/с34 %
    08:00Ясно и безоблачно+17°C77 %745 мм4.1 м/с25 %
    11:00Ясно и безоблачно+21°C51 %745 мм4.9 м/с16 %
    14:00Ясно и безоблачно+22°C40 %744 мм5.6 м/с11 %
    17:00Ясно и безоблачно+23°C39 %743 мм5.4 м/с2 %
    20:00Ясно и безоблачно+20°C51 %743 мм2.7 м/с6 %
    23:00Практически безоблачно+16°C63 %743 мм2.6 м/с4 %
Мы используем cookies
Соглашаюсь